createdAt,value
2023-03-13T00:01:19.126Z,11.98
2023-03-13T00:03:46.553Z,11.80
2023-03-13T00:06:14.403Z,12.25
2023-03-13T00:08:41.875Z,12.85
2023-03-13T00:11:11.692Z,16.05
2023-03-13T00:13:39.076Z,18.52
2023-03-13T00:16:13.341Z,18.67
2023-03-13T00:18:49.529Z,13.75
2023-03-13T00:21:18.320Z,15.45
2023-03-13T00:23:46.427Z,18.75
2023-03-13T00:26:18.788Z,15.02
2023-03-13T00:28:46.344Z,15.32
2023-03-13T00:31:25.016Z,15.30
2023-03-13T00:33:57.448Z,15.10
2023-03-13T00:36:30.916Z,15.75
2023-03-13T00:38:58.733Z,16.67
2023-03-13T00:41:29.543Z,16.95
2023-03-13T00:43:57.378Z,21.27
2023-03-13T00:46:28.451Z,17.80
2023-03-13T00:48:56.152Z,15.55
2023-03-13T00:51:26.668Z,15.70
2023-03-13T00:53:54.925Z,15.45
2023-03-13T00:56:22.116Z,14.90
2023-03-13T00:58:50.490Z,14.38
2023-03-13T01:01:34.445Z,13.68
2023-03-13T01:04:09.093Z,13.75
2023-03-13T01:06:40.453Z,12.95
2023-03-13T01:09:08.436Z,12.98
2023-03-13T01:11:38.382Z,11.93
2023-03-13T01:14:15.998Z,11.68
2023-03-13T01:16:43.420Z,11.75
2023-03-13T01:19:15.202Z,11.93
2023-03-13T01:21:44.700Z,11.38
2023-03-13T01:24:12.450Z,12.43
2023-03-13T01:26:39.684Z,15.50
2023-03-13T01:29:06.568Z,14.40
2023-03-13T01:31:35.819Z,14.38
2023-03-13T01:34:05.835Z,14.70
2023-03-13T01:36:35.648Z,15.68
2023-03-13T01:39:02.666Z,14.73
2023-03-13T01:41:30.961Z,12.93
2023-03-13T01:43:58.511Z,12.18
2023-03-13T01:46:30.372Z,12.75
2023-03-13T01:49:02.955Z,10.90
2023-03-13T01:51:34.922Z,10.38
2023-03-13T01:54:11.754Z,9.63
2023-03-13T01:57:04.459Z,9.43
2023-03-13T01:59:48.684Z,9.93
2023-03-13T02:02:16.777Z,8.93
2023-03-13T02:04:50.458Z,8.80
2023-03-13T02:08:01.808Z,8.63
2023-03-13T02:10:31.714Z,8.25
2023-03-13T02:13:02.556Z,9.45
2023-03-13T02:15:31.476Z,8.90
2023-03-13T02:17:58.586Z,8.43
2023-03-13T02:20:25.468Z,8.80
2023-03-13T02:23:13.523Z,7.85
2023-03-13T02:25:48.624Z,7.97
2023-03-13T02:28:28.003Z,7.63
2023-03-13T02:30:58.542Z,8.70
2023-03-13T02:33:32.469Z,7.30
2023-03-13T02:36:03.172Z,7.72
2023-03-13T02:38:34.960Z,8.50
2023-03-13T02:41:04.852Z,8.13
2023-03-13T02:43:38.343Z,8.48
2023-03-13T02:46:15.539Z,8.63
2023-03-13T02:48:46.923Z,8.90
2023-03-13T02:51:41.692Z,8.35
2023-03-13T02:54:18.245Z,8.82
2023-03-13T02:56:51.421Z,8.85
2023-03-13T02:59:18.409Z,8.77
2023-03-13T03:01:45.742Z,9.13
2023-03-13T03:04:12.818Z,9.18
2023-03-13T03:06:39.702Z,9.60
2023-03-13T03:09:06.624Z,9.15
2023-03-13T03:11:33.418Z,9.55
2023-03-13T03:14:00.289Z,9.52
2023-03-13T03:16:27.176Z,10.40
2023-03-13T03:18:54.047Z,10.02
2023-03-13T03:21:21.293Z,9.65
2023-03-13T03:23:48.133Z,10.45
2023-03-13T03:26:14.992Z,9.18
2023-03-13T03:28:42.015Z,10.38
2023-03-13T03:31:12.630Z,10.73
2023-03-13T03:33:40.637Z,10.65
2023-03-13T03:36:13.729Z,10.20
2023-03-13T03:38:41.761Z,11.00
2023-03-13T03:41:10.274Z,10.45
2023-03-13T03:43:37.568Z,11.35
2023-03-13T03:46:04.766Z,11.25
2023-03-13T03:48:32.288Z,11.38
2023-03-13T03:50:59.359Z,11.73
2023-03-13T03:53:26.462Z,11.40
2023-03-13T03:55:53.305Z,11.68
2023-03-13T03:58:20.218Z,10.95
2023-03-13T04:00:48.321Z,11.40
2023-03-13T04:03:16.148Z,11.57
2023-03-13T04:05:43.851Z,12.40
2023-03-13T04:08:10.971Z,12.18
2023-03-13T04:10:37.840Z,12.45
2023-03-13T04:13:04.739Z,12.43
2023-03-13T04:15:31.666Z,11.98
2023-03-13T04:17:58.487Z,12.45
2023-03-13T04:20:25.587Z,13.68
2023-03-13T04:22:53.701Z,12.82
2023-03-13T04:25:20.797Z,12.93
2023-03-13T04:27:47.643Z,13.48
2023-03-13T04:30:16.290Z,13.20
2023-03-13T04:32:44.652Z,13.32
2023-03-13T04:35:11.546Z,13.57
2023-03-13T04:37:38.402Z,13.15
2023-03-13T04:40:07.029Z,13.93
2023-03-13T04:42:33.810Z,13.60
2023-03-13T04:45:00.624Z,13.85
2023-03-13T04:47:27.465Z,13.90
2023-03-13T04:49:54.310Z,14.27
2023-03-13T04:52:21.244Z,15.02
2023-03-13T04:54:48.281Z,13.68
2023-03-13T04:57:19.741Z,14.98
2023-03-13T04:59:46.640Z,15.32
2023-03-13T05:02:13.918Z,14.98
2023-03-13T05:04:43.751Z,14.57
2023-03-13T05:07:10.547Z,15.68
2023-03-13T05:09:37.360Z,14.45
2023-03-13T05:12:04.557Z,14.80
2023-03-13T05:14:31.398Z,15.20
2023-03-13T05:16:58.268Z,14.25
2023-03-13T05:19:25.195Z,15.60
2023-03-13T05:21:52.072Z,15.32
2023-03-13T05:24:18.933Z,15.77
2023-03-13T05:26:45.763Z,17.50
2023-03-13T05:29:12.626Z,18.23
2023-03-13T05:31:39.487Z,18.80
2023-03-13T05:34:06.322Z,17.58
2023-03-13T05:36:33.156Z,19.88
2023-03-13T05:39:00.022Z,61.92
2023-03-13T05:41:26.951Z,25.65
2023-03-13T05:43:53.798Z,28.95
2023-03-13T05:46:20.743Z,19.48
2023-03-13T05:48:47.648Z,24.85
2023-03-13T05:51:14.634Z,32.85
2023-03-13T05:53:41.571Z,23.92
2023-03-13T05:56:11.491Z,24.65
2023-03-13T05:58:38.375Z,28.20
2023-03-13T06:01:14.086Z,25.73
2023-03-13T06:03:41.155Z,26.52
2023-03-13T06:06:08.121Z,27.05
2023-03-13T06:08:37.739Z,26.45
2023-03-13T06:11:07.514Z,28.17
2023-03-13T06:13:34.614Z,31.48
2023-03-13T06:16:01.885Z,29.40
2023-03-13T06:18:28.761Z,30.27
2023-03-13T06:21:01.184Z,24.85
2023-03-13T06:23:28.540Z,21.33
2023-03-13T06:25:56.623Z,22.02
2023-03-13T06:28:23.574Z,24.58
2023-03-13T06:30:50.505Z,21.48
2023-03-13T06:33:17.518Z,25.42
2023-03-13T06:35:55.808Z,24.65
2023-03-13T06:38:25.129Z,25.67
2023-03-13T06:40:52.479Z,26.08
2023-03-13T06:43:19.958Z,28.15
2023-03-13T06:45:47.362Z,27.30
2023-03-13T06:48:14.629Z,26.17
2023-03-13T06:50:42.162Z,24.60
2023-03-13T06:53:19.487Z,25.40
2023-03-13T06:55:47.191Z,23.98
2023-03-13T06:58:28.807Z,24.40
2023-03-13T07:00:59.050Z,21.77
2023-03-13T07:03:26.129Z,22.17
2023-03-13T07:05:58.125Z,22.65
2023-03-13T07:08:25.719Z,21.65
2023-03-13T07:10:53.753Z,22.85
2023-03-13T07:13:21.806Z,22.80
2023-03-13T07:15:49.471Z,25.08
2023-03-13T07:18:16.529Z,24.35
2023-03-13T07:20:44.005Z,24.15
2023-03-13T07:23:10.893Z,23.48
2023-03-13T07:25:37.733Z,33.40
2023-03-13T07:28:04.770Z,35.40
2023-03-13T07:30:31.702Z,32.85
2023-03-13T07:32:59.120Z,32.92
2023-03-13T07:35:26.085Z,31.88
2023-03-13T07:37:52.999Z,37.42
2023-03-13T07:40:20.108Z,33.38
2023-03-13T07:42:46.980Z,30.05
2023-03-13T07:45:13.835Z,31.63
2023-03-13T07:47:40.674Z,30.30
2023-03-13T07:50:08.545Z,33.60
2023-03-13T07:52:35.556Z,32.10
2023-03-13T07:55:02.447Z,30.90
2023-03-13T07:57:29.344Z,33.88
2023-03-13T07:59:56.171Z,37.83
2023-03-13T08:02:23.171Z,29.05
2023-03-13T08:04:53.218Z,30.50
2023-03-13T08:07:20.141Z,29.88
2023-03-13T08:09:47.247Z,31.33
2023-03-13T08:12:14.125Z,30.58
2023-03-13T08:14:40.928Z,29.38
2023-03-13T08:17:07.844Z,29.92
2023-03-13T08:19:34.748Z,28.23
2023-03-13T08:22:02.622Z,29.60
2023-03-13T08:24:29.566Z,28.25
2023-03-13T08:26:56.377Z,28.88
2023-03-13T08:29:23.214Z,30.63
2023-03-13T08:31:54.343Z,29.75
2023-03-13T08:34:21.310Z,32.92
2023-03-13T08:36:48.313Z,32.60
2023-03-13T08:39:18.586Z,33.78
2023-03-13T08:41:48.995Z,37.95
2023-03-13T08:44:20.033Z,40.90
2023-03-13T08:46:49.134Z,38.75
2023-03-13T08:49:17.575Z,67.25
2023-03-13T08:51:44.583Z,35.67
2023-03-13T08:54:11.492Z,34.33
2023-03-13T08:56:38.415Z,36.95
2023-03-13T08:59:06.625Z,33.42
2023-03-13T09:01:35.882Z,37.95
2023-03-13T09:04:04.975Z,33.67
2023-03-13T09:06:38.359Z,35.10
2023-03-13T09:09:08.077Z,31.20
2023-03-13T09:11:37.285Z,38.22
2023-03-13T09:14:04.166Z,36.13
2023-03-13T09:16:32.906Z,31.58
2023-03-13T09:19:01.092Z,32.70
2023-03-13T09:21:34.193Z,30.42
2023-03-13T09:24:02.029Z,36.47
2023-03-13T09:26:29.206Z,44.33
2023-03-13T09:28:56.523Z,31.08
2023-03-13T09:31:27.790Z,29.40
2023-03-13T09:33:55.060Z,33.13
2023-03-13T09:36:23.956Z,32.03
2023-03-13T09:38:57.596Z,30.95
2023-03-13T09:41:40.326Z,30.00
2023-03-13T09:44:23.222Z,31.25
2023-03-13T09:47:08.494Z,30.17
2023-03-13T09:49:42.823Z,28.70
2023-03-13T09:52:40.492Z,29.15
2023-03-13T09:55:22.384Z,30.00
2023-03-13T09:57:55.811Z,28.30
2023-03-13T10:00:31.838Z,31.80
2023-03-13T10:03:31.456Z,30.05
2023-03-13T10:06:24.698Z,29.23
2023-03-13T10:08:52.859Z,28.27
2023-03-13T10:11:44.572Z,28.05
2023-03-13T10:14:29.761Z,27.52
2023-03-13T10:17:07.268Z,28.85
2023-03-13T10:19:43.396Z,26.38
2023-03-13T10:22:22.789Z,28.50
2023-03-13T10:25:09.753Z,26.92
2023-03-13T10:27:51.138Z,46.55
2023-03-13T10:30:31.356Z,48.72
2023-03-13T10:33:12.125Z,28.52
2023-03-13T10:35:42.598Z,25.02
2023-03-13T10:38:20.463Z,25.27
2023-03-13T10:41:05.557Z,23.20
2023-03-13T10:43:32.465Z,22.42
2023-03-13T10:45:59.488Z,22.38
2023-03-13T10:48:35.827Z,21.73
2023-03-13T10:51:02.692Z,20.15
2023-03-13T10:53:29.465Z,20.83
2023-03-13T10:56:08.989Z,22.15
2023-03-13T10:58:51.749Z,20.92
2023-03-13T11:01:42.191Z,22.67
2023-03-13T11:04:39.004Z,22.48
2023-03-13T11:07:21.176Z,22.25
2023-03-13T11:10:19.253Z,22.23
2023-03-13T11:12:53.176Z,19.13
2023-03-13T11:15:41.443Z,22.33
2023-03-13T11:18:29.412Z,19.42
2023-03-13T11:21:08.717Z,18.20
2023-03-13T11:23:53.890Z,18.50
2023-03-13T11:27:03.859Z,17.92
2023-03-13T11:30:07.602Z,17.75
2023-03-13T11:32:52.336Z,18.00
2023-03-13T11:35:37.202Z,16.80
2023-03-13T11:38:20.160Z,17.08
2023-03-13T11:41:37.718Z,17.58
2023-03-13T11:44:22.773Z,16.80
2023-03-13T11:47:29.263Z,17.00
2023-03-13T11:50:07.622Z,17.80
2023-03-13T11:53:24.795Z,17.13
2023-03-13T11:56:13.913Z,16.83
2023-03-13T11:58:49.223Z,18.83
2023-03-13T12:01:27.262Z,18.27
2023-03-13T12:04:11.646Z,16.42
2023-03-13T12:06:52.165Z,32.70
2023-03-13T12:09:51.671Z,23.75
2023-03-13T12:12:59.926Z,19.80
2023-03-13T12:15:45.284Z,18.02
2023-03-13T12:18:34.359Z,20.15
2023-03-13T12:21:34.861Z,20.98
2023-03-13T12:24:12.721Z,22.10
2023-03-13T12:26:55.359Z,22.50
2023-03-13T12:29:41.982Z,24.02
2023-03-13T12:32:22.381Z,21.48
2023-03-13T12:35:12.659Z,26.98
2023-03-13T12:37:50.186Z,23.60
2023-03-13T12:40:34.112Z,21.80
2023-03-13T12:43:19.493Z,20.98
2023-03-13T12:45:57.063Z,21.23
2023-03-13T12:49:12.276Z,20.98
2023-03-13T12:52:02.498Z,19.67
2023-03-13T12:55:08.192Z,23.13
2023-03-13T12:58:10.664Z,21.90
2023-03-13T13:00:42.543Z,22.02
2023-03-13T13:03:45.069Z,20.70
2023-03-13T13:06:15.668Z,23.35
2023-03-13T13:08:54.664Z,25.00
2023-03-13T13:11:39.627Z,33.20
2023-03-13T13:14:18.256Z,25.85
2023-03-13T13:17:16.514Z,19.75
2023-03-13T13:19:46.055Z,29.95
2023-03-13T13:22:37.849Z,19.08
2023-03-13T13:25:10.616Z,25.48
2023-03-13T13:27:37.379Z,23.75
2023-03-13T13:30:30.399Z,32.78
2023-03-13T13:33:20.438Z,28.65
2023-03-13T13:36:10.619Z,16.42
2023-03-13T13:38:42.686Z,23.40
2023-03-13T13:41:09.567Z,16.05
2023-03-13T13:43:45.868Z,15.20
2023-03-13T13:46:33.219Z,18.08
2023-03-13T13:49:06.682Z,18.45
2023-03-13T13:51:42.155Z,17.20
2023-03-13T13:54:55.024Z,12.65
2023-03-13T13:57:29.926Z,12.63
2023-03-13T14:00:05.692Z,12.80
2023-03-13T14:02:52.187Z,13.35
2023-03-13T14:05:29.257Z,15.00
2023-03-13T14:08:17.464Z,25.95
2023-03-13T14:11:30.454Z,14.70
2023-03-13T14:14:21.672Z,12.52
2023-03-13T14:16:54.207Z,10.70
2023-03-13T14:19:42.113Z,13.60
2023-03-13T14:22:14.247Z,16.48
2023-03-13T14:24:41.279Z,19.43
2023-03-13T14:27:19.878Z,13.55
2023-03-13T14:30:11.066Z,15.13
2023-03-13T14:32:39.429Z,24.00
2023-03-13T14:35:09.378Z,15.45
2023-03-13T14:38:02.360Z,27.02
2023-03-13T14:40:33.016Z,25.38
2023-03-13T14:43:02.850Z,14.65
2023-03-13T14:45:35.599Z,16.00
2023-03-13T14:48:22.750Z,11.40
2023-03-13T14:51:12.548Z,9.45
2023-03-13T14:53:59.213Z,8.38
2023-03-13T14:56:38.234Z,9.07
2023-03-13T14:59:19.473Z,10.95
2023-03-13T15:01:46.886Z,7.75
2023-03-13T15:04:13.940Z,7.97
2023-03-13T15:06:41.031Z,7.90
2023-03-13T15:09:18.457Z,7.85
2023-03-13T15:11:59.268Z,8.15
2023-03-13T15:14:45.876Z,7.20
2023-03-13T15:17:23.695Z,7.75
2023-03-13T15:19:56.989Z,6.75
2023-03-13T15:22:33.305Z,6.47
2023-03-13T15:25:08.233Z,6.68
2023-03-13T15:27:36.052Z,7.30
2023-03-13T15:30:03.195Z,6.53
2023-03-13T15:32:35.898Z,6.90
2023-03-13T15:35:21.409Z,6.80
2023-03-13T15:37:48.290Z,6.72
2023-03-13T15:40:17.099Z,6.57
2023-03-13T15:42:44.138Z,7.20
2023-03-13T15:45:11.765Z,6.50
2023-03-13T15:47:38.620Z,6.25
2023-03-13T15:50:12.760Z,6.88
2023-03-13T15:52:40.069Z,6.50
2023-03-13T15:55:08.430Z,6.22
2023-03-13T15:57:40.987Z,6.95
2023-03-13T16:00:29.901Z,6.70
2023-03-13T16:02:56.798Z,16.92
2023-03-13T16:05:23.626Z,10.85
2023-03-13T16:07:50.451Z,10.75
2023-03-13T16:10:25.823Z,7.53
2023-03-13T16:12:55.948Z,7.38
2023-03-13T16:15:23.130Z,7.32
2023-03-13T16:17:50.369Z,9.07
2023-03-13T16:20:21.622Z,8.82
2023-03-13T16:22:48.589Z,8.85
2023-03-13T16:25:15.853Z,8.88
2023-03-13T16:27:43.464Z,10.68
2023-03-13T16:30:32.891Z,10.35
2023-03-13T16:33:00.474Z,11.35
2023-03-13T16:35:28.808Z,11.18
2023-03-13T16:37:57.946Z,14.13
2023-03-13T16:40:32.108Z,12.68
2023-03-13T16:42:59.284Z,17.00
2023-03-13T16:45:26.951Z,14.80
2023-03-13T16:47:54.081Z,13.85
2023-03-13T16:50:29.534Z,14.55
2023-03-13T16:52:56.507Z,31.00
2023-03-13T16:55:28.380Z,25.38
2023-03-13T16:58:01.851Z,12.65
2023-03-13T17:00:32.035Z,16.02
2023-03-13T17:02:59.552Z,14.48
2023-03-13T17:05:27.572Z,14.25
2023-03-13T17:07:54.930Z,14.93
2023-03-13T17:10:28.858Z,22.13
2023-03-13T17:12:56.370Z,26.17
2023-03-13T17:15:25.368Z,24.27
2023-03-13T17:17:54.062Z,28.95
2023-03-13T17:20:27.398Z,22.77
2023-03-13T17:22:57.993Z,26.33
2023-03-13T17:25:25.347Z,28.63
2023-03-13T17:27:52.335Z,23.52
2023-03-13T17:30:30.066Z,26.40
2023-03-13T17:32:58.997Z,32.42
2023-03-13T17:35:25.986Z,30.65
2023-03-13T17:37:53.162Z,44.25
2023-03-13T17:40:28.524Z,27.75
2023-03-13T17:42:56.353Z,36.75
2023-03-13T17:45:24.115Z,21.88
2023-03-13T17:47:54.542Z,26.05
2023-03-13T17:50:27.342Z,20.67
2023-03-13T17:52:55.029Z,29.58
2023-03-13T17:55:22.650Z,21.85
2023-03-13T17:57:49.726Z,21.40
2023-03-13T18:00:25.572Z,31.85
2023-03-13T18:02:52.475Z,21.67
2023-03-13T18:05:19.448Z,21.40
2023-03-13T18:07:48.468Z,31.13
2023-03-13T18:10:28.119Z,31.55
2023-03-13T18:12:55.282Z,20.20
2023-03-13T18:15:25.494Z,19.42
2023-03-13T18:17:52.991Z,19.95
2023-03-13T18:20:25.416Z,21.58
2023-03-13T18:22:52.578Z,23.10
2023-03-13T18:25:19.688Z,18.80
2023-03-13T18:27:46.506Z,19.42
2023-03-13T18:30:23.412Z,17.27
2023-03-13T18:32:50.611Z,19.83
2023-03-13T18:35:18.268Z,17.77
2023-03-13T18:37:47.587Z,18.92
2023-03-13T18:40:20.851Z,18.73
2023-03-13T18:42:47.773Z,20.05
2023-03-13T18:45:29.260Z,19.83
2023-03-13T18:47:56.623Z,20.10
2023-03-13T18:50:31.617Z,19.38
2023-03-13T18:53:00.305Z,16.65
2023-03-13T18:55:30.882Z,16.13
2023-03-13T18:57:57.968Z,13.90
2023-03-13T19:00:30.886Z,21.63
2023-03-13T19:05:24.950Z,17.35
2023-03-13T19:07:51.899Z,14.75
2023-03-13T19:10:24.764Z,14.77
2023-03-13T19:12:53.806Z,16.98
2023-03-13T19:15:24.332Z,15.27
2023-03-13T19:17:52.841Z,14.75
2023-03-13T19:20:27.700Z,15.30
2023-03-13T19:22:56.253Z,14.50
2023-03-13T19:25:23.626Z,15.52
2023-03-13T19:27:52.497Z,15.15
2023-03-13T19:30:23.240Z,14.82
2023-03-13T19:32:50.695Z,15.63
2023-03-13T19:35:21.039Z,16.17
2023-03-13T19:37:48.446Z,15.65
2023-03-13T19:40:28.661Z,16.35
2023-03-13T19:42:55.564Z,15.13
2023-03-13T19:45:22.460Z,15.50
2023-03-13T19:47:50.331Z,17.23
2023-03-13T19:50:29.872Z,15.43
2023-03-13T19:52:57.007Z,16.92
2023-03-13T19:55:24.118Z,17.27
2023-03-13T19:57:54.078Z,17.67
2023-03-13T20:00:24.923Z,17.20
2023-03-13T20:02:57.657Z,14.80
2023-03-13T20:05:28.805Z,15.65
2023-03-13T20:07:55.809Z,19.90
2023-03-13T20:10:23.095Z,16.42
2023-03-13T20:12:49.956Z,17.77
2023-03-13T20:15:17.447Z,16.08
2023-03-13T20:17:44.593Z,15.95
2023-03-13T20:20:15.935Z,15.73
2023-03-13T20:22:43.685Z,17.13
2023-03-13T20:25:11.046Z,15.65
2023-03-13T20:27:39.123Z,15.32
2023-03-13T20:30:07.204Z,15.40
2023-03-13T20:32:34.249Z,14.00
2023-03-13T20:35:02.350Z,13.73
2023-03-13T20:37:29.282Z,14.52
2023-03-13T20:39:56.266Z,14.02
2023-03-13T20:42:23.310Z,15.82
2023-03-13T20:44:50.183Z,14.40
2023-03-13T20:47:17.452Z,13.55
2023-03-13T20:49:44.309Z,13.45
2023-03-13T20:52:11.186Z,14.07
2023-03-13T20:54:38.899Z,12.93
2023-03-13T20:57:06.193Z,13.73
2023-03-13T20:59:33.100Z,12.60
2023-03-13T21:02:00.114Z,13.18
2023-03-13T21:04:27.062Z,16.17
2023-03-13T21:06:54.233Z,12.80
2023-03-13T21:09:21.488Z,12.88
2023-03-13T21:11:48.543Z,19.08
2023-03-13T21:14:15.484Z,20.83
2023-03-13T21:16:42.372Z,18.95
2023-03-13T21:19:09.276Z,23.27
2023-03-13T21:21:36.170Z,21.00
2023-03-13T21:24:03.030Z,31.38
2023-03-13T21:26:30.371Z,23.13
2023-03-13T21:28:57.456Z,28.13
2023-03-13T21:31:25.069Z,31.77
2023-03-13T21:33:52.262Z,28.95
2023-03-13T21:36:21.202Z,22.90
2023-03-13T21:38:50.300Z,20.45
2023-03-13T21:41:20.869Z,17.83
2023-03-13T21:43:48.088Z,21.35
2023-03-13T21:46:17.946Z,31.58
2023-03-13T21:51:18.063Z,18.42
2023-03-13T21:53:46.600Z,18.67
2023-03-13T21:56:15.536Z,25.73
2023-03-13T21:58:45.599Z,20.75
2023-03-13T22:01:14.794Z,23.60
2023-03-13T22:03:42.242Z,28.90
2023-03-13T22:06:20.869Z,19.52
2023-03-13T22:08:51.130Z,19.00
2023-03-13T22:11:18.872Z,15.95
2023-03-13T22:13:45.828Z,21.08
2023-03-13T22:16:12.776Z,16.27
2023-03-13T22:18:41.793Z,15.85
2023-03-13T22:21:08.910Z,15.10
2023-03-13T22:23:35.777Z,12.43
2023-03-13T22:26:03.377Z,13.73
2023-03-13T22:28:30.341Z,16.10
2023-03-13T22:31:01.672Z,13.10
2023-03-13T22:33:28.538Z,13.20
2023-03-13T22:35:55.550Z,12.65
2023-03-13T22:38:22.683Z,13.57
2023-03-13T22:41:05.136Z,12.57
2023-03-13T22:43:32.313Z,14.83
2023-03-13T22:45:59.667Z,10.25
2023-03-13T22:48:28.147Z,11.07
2023-03-13T22:51:08.956Z,11.80
2023-03-13T22:53:39.185Z,14.98
2023-03-13T22:56:09.884Z,11.68
2023-03-13T22:58:37.423Z,10.63
2023-03-13T23:01:16.757Z,11.48
2023-03-13T23:03:45.133Z,10.35
2023-03-13T23:06:22.406Z,9.98
2023-03-13T23:08:52.466Z,9.65
2023-03-13T23:11:20.603Z,10.32
2023-03-13T23:13:47.559Z,15.20
2023-03-13T23:16:14.932Z,8.98
2023-03-13T23:18:42.635Z,10.18
2023-03-13T23:21:14.307Z,10.80
2023-03-13T23:23:42.109Z,10.07
2023-03-13T23:26:14.317Z,11.20
2023-03-13T23:28:41.637Z,9.97
2023-03-13T23:31:21.240Z,9.85
2023-03-13T23:33:49.315Z,10.13
2023-03-13T23:36:19.613Z,8.93
2023-03-13T23:38:52.290Z,9.70
2023-03-13T23:41:20.796Z,10.20
2023-03-13T23:43:47.916Z,9.88
2023-03-13T23:46:20.858Z,9.75
2023-03-13T23:48:47.861Z,8.43
2023-03-13T23:51:14.749Z,9.13
2023-03-13T23:53:43.246Z,11.95
2023-03-13T23:56:11.408Z,12.30
2023-03-13T23:58:38.677Z,9.95
